Warwick, MA (01378)

12:41 AM EDT on August 04, 2015 (GMT -0400)
NQRA-Walnut Hill Rd. | | Change Station
CLOSE
Current Station
Personal Weather Station
Location: Orange, MA
Elevation: 768 ft
Nearby Weather Stations

Elev 768 ft 42.58 °N, 72.32 °W | Updated 7 seconds ago

Mostly Cloudy
Mostly Cloudy
71.2 °F
Feels Like 71 °F
N
0.0
Wind Variable Wind from North
Gusts 2.2 mph

Today
High -- | Low -- °F
--% Chance of Precip.
Yesterday
High -- | Low -- °F
Precip. -- in
5:43 AM 8:06 PM
Waning Gibbous, 81% visible
Pressure 29.80 in
Visibility 10.0 miles
Clouds Clear
Heat Index 71 °F
Dew Point 65 °F
Humidity 81%
Rainfall 0.00 in
Snow Depth Not available.
UV 0.0 out of 12
Pollen 5.60 out of 12
Air Quality Not available.
Flu Activity Not available.
METAR KORE 040352Z AUTO 21006KT 10SM CLR 22/19 A2981 RMK AO2 SLP091 T02220189

More Conditions Fewer Conditions

Pressure 29.80 in
Visibility 10.0 miles
Clouds Clear
Heat Index 71 °F
Dew Point 65 °F
Humidity 81%
Rainfall 0.00 in
Snow Depth Not available.
UV 0.0 out of 12
Pollen 5.60 out of 12
Air Quality Not available.
Flu Activity Not available.
METAR KORE 040352Z AUTO 21006KT 10SM CLR 22/19 A2981 RMK AO2 SLP091 T02220189

More Conditions Fewer Conditions

10-Day Weather Forecast

×

Almanac

Astronomy

Aug. 04, 2015 Rise Set
Actual Time
Civil Twilight
Nautical Twilight
Astronomical Twilight
Moon
Length of Visible Light
Length of Day
Tomorrow will be .
, % of the Moon is Illuminated

Today's Extremes

State Highs State Lows

Community

WunderPhotos

Upload Photos

1,843,865 photos uploaded!

WunderBlogs® & News

Nearby

Air Quality

  Air Quality AQ Index Pollutant
Not available.

Snow Depth

Station Depth Elevation

Earthquake Activity

City Distance Mag. Time & Date
Minimum magnitude displayed is 2.5.

Coastal Water Temperatures

Place Temperature

Stations

Nearby Weather Stations

Station Location Temp. Windchill Dew Point Humidity Wind Precip. Elev Updated Type